42.2°F
Current conditions from King Hill
Updated every 5 minutes
 
  Thursday October 30, 2014

Station Historical Data
Daily Summary for January 19, 2012 Units:  Both    English   Metric
« Previous Day
Next Day »
Daily Weekly Monthly Yearly Custom
  High: Low: Average:
Temperature: 26.3 °F /  -3.2 °C -1.6 °F /  -18.7 °C 12.8 °F /  -10.7 °C
Dew Point: 17.6 °F /  -8 °C -6.8 °F /  -21.6 °C 2.6 °F /  -16.3 °C
Humidity: 84% 36% 66%
Wind Speed: 9.0mph /  14.5km/h - 4.2mph /  6.8km/h
Wind Gust: 20.0mph /  32.2km/h - -
Wind- - South
Pressure: 30.22 in /  1023.2 hPa 29.85 in /  1010.7 hPa -
Precipitation: 0.00 in /  0 mm    
Historical Graphs
 
 
Tabular Data for January 19, 2012
Time Temperature Dew Point Pressure Wind Wind Speed Wind Gust Humidity Daily Rainfall
00:04 2.3 °F /  -16.5 °C -3.3 °F /  -19.6 °C 30.17in /  1021.6hPa Calm     77% 0.00in /  0mm
00:10 2.2 °F /  -16.6 °C -3.4 °F /  -19.7 °C 30.17in /  1021.6hPa Calm     77% 0.00in /  0mm
00:15 2.1 °F /  -16.6 °C -3.5 °F /  -19.7 °C 30.17in /  1021.6hPa Calm     77% 0.00in /  0mm
00:19 2.0 °F /  -16.7 °C -3.3 °F /  -19.6 °C 30.17in /  1021.6hPa Calm     78% 0.00in /  0mm
00:24 1.9 °F /  -16.7 °C -3.4 °F /  -19.7 °C 30.17in /  1021.6hPa Calm     78% 0.00in /  0mm
00:29 1.7 °F /  -16.8 °C -3.6 °F /  -19.8 °C 30.17in /  1021.6hPa Calm     78% 0.00in /  0mm
00:34 1.5 °F /  -16.9 °C -3.8 °F /  -19.9 °C 30.17in /  1021.6hPa Calm     78% 0.00in /  0mm
00:40 1.5 °F /  -16.9 °C -3.5 °F /  -19.7 °C 30.17in /  1021.6hPa Calm     79% 0.00in /  0mm
00:50 0.9 °F /  -17.3 °C -4.1 °F /  -20.1 °C 30.17in /  1021.6hPa Calm     79% 0.00in /  0mm
00:54 0.6 °F /  -17.4 °C -4.4 °F /  -20.2 °C 30.17in /  1021.6hPa Calm     79% 0.00in /  0mm
00:59 0.3 °F /  -17.6 °C -4.7 °F /  -20.4 °C 30.17in /  1021.6hPa Calm     79% 0.00in /  0mm
01:04 0.0 °F /  -17.8 °C -5.0 °F /  -20.6 °C 30.17in /  1021.6hPa Calm     79% 0.00in /  0mm
01:10 -0.1 °F /  -17.8 °C -5.1 °F /  -20.6 °C 30.17in /  1021.6hPa Calm     79% 0.00in /  0mm
01:14 -0.1 °F /  -17.8 °C -4.8 °F /  -20.4 °C 30.17in /  1021.6hPa Calm     80% 0.00in /  0mm
01:19 -0.1 °F /  -17.8 °C -4.8 °F /  -20.4 °C 30.17in /  1021.6hPa Calm     80% 0.00in /  0mm
01:24 0.0 °F /  -17.8 °C -4.7 °F /  -20.4 °C 30.17in /  1021.6hPa Calm     80% 0.00in /  0mm
01:30 -0.1 °F /  -17.8 °C -4.8 °F /  -20.4 °C 30.16in /  1021.2hPa Calm     80% 0.00in /  0mm
01:34 -0.2 °F /  -17.9 °C -4.9 °F /  -20.5 °C 30.16in /  1021.2hPa Calm     80% 0.00in /  0mm
01:40 0.0 °F /  -17.8 °C -4.4 °F /  -20.2 °C 30.16in /  1021.2hPa Calm     81% 0.00in /  0mm
01:49 0.5 °F /  -17.5 °C -4.0 °F /  -20 °C 30.16in /  1021.2hPa Calm     81% 0.00in /  0mm
01:54 0.6 °F /  -17.4 °C -3.9 °F /  -19.9 °C 30.16in /  1021.2hPa Calm     81% 0.00in /  0mm
01:59 0.4 °F /  -17.6 °C -4.3 °F /  -20.2 °C 30.16in /  1021.2hPa Calm     80% 0.00in /  0mm
02:04 0.2 °F /  -17.7 °C -4.5 °F /  -20.3 °C 30.16in /  1021.2hPa Calm     80% 0.00in /  0mm
02:09 0.1 °F /  -17.7 °C -4.6 °F /  -20.3 °C 30.16in /  1021.2hPa Calm   1.0mph /  1.6km/h 80% 0.00in /  0mm
02:15 0.6 °F /  -17.4 °C -3.9 °F /  -19.9 °C 30.16in /  1021.2hPa Calm   1.0mph /  1.6km/h 81% 0.00in /  0mm
02:19 0.8 °F /  -17.3 °C -3.7 °F /  -19.8 °C 30.16in /  1021.2hPa Calm   1.0mph /  1.6km/h 81% 0.00in /  0mm
02:25 0.8 °F /  -17.3 °C -3.7 °F /  -19.8 °C 30.16in /  1021.2hPa Calm   1.0mph /  1.6km/h 81% 0.00in /  0mm
02:30 1.0 °F /  -17.2 °C -3.5 °F /  -19.7 °C 30.16in /  1021.2hPa Calm   2.0mph /  3.2km/h 81% 0.00in /  0mm
02:35 1.0 °F /  -17.2 °C -3.5 °F /  -19.7 °C 30.16in /  1021.2hPa Calm   2.0mph /  3.2km/h 81% 0.00in /  0mm
02:40 1.1 °F /  -17.2 °C -3.4 °F /  -19.7 °C 30.16in /  1021.2hPa Calm   1.0mph /  1.6km/h 81% 0.00in /  0mm
02:45 1.1 °F /  -17.2 °C -3.6 °F /  -19.8 °C 30.16in /  1021.2hPa Calm   1.0mph /  1.6km/h 80% 0.00in /  0mm
02:49 1.2 °F /  -17.1 °C -3.5 °F /  -19.7 °C 30.16in /  1021.2hPa Calm   1.0mph /  1.6km/h 80% 0.00in /  0mm
02:54 1.3 °F /  -17.1 °C -3.4 °F /  -19.7 °C 30.16in /  1021.2hPa Calm   1.0mph /  1.6km/h 80% 0.00in /  0mm
02:59 1.4 °F /  -17 °C -3.1 °F /  -19.5 °C 30.16in /  1021.2hPa Calm     81% 0.00in /  0mm
03:04 1.0 °F /  -17.2 °C -3.7 °F /  -19.8 °C 30.16in /  1021.2hPa Calm     80% 0.00in /  0mm
03:10 0.4 °F /  -17.6 °C -4.6 °F /  -20.3 °C 30.16in /  1021.2hPa Calm     79% 0.00in /  0mm
03:14 -0.2 °F /  -17.9 °C -5.2 °F /  -20.7 °C 30.16in /  1021.2hPa Calm     79% 0.00in /  0mm
03:19 -0.8 °F /  -18.2 °C -6.0 °F /  -21.1 °C 30.16in /  1021.2hPa Calm     78% 0.00in /  0mm
03:25 -1.2 °F /  -18.4 °C -6.1 °F /  -21.2 °C 30.16in /  1021.2hPa Calm     79% 0.00in /  0mm
03:30 -1.2 °F /  -18.4 °C -6.1 °F /  -21.2 °C 30.16in /  1021.2hPa Calm     79% 0.00in /  0mm
03:34 -1.5 °F /  -18.6 °C -6.4 °F /  -21.3 °C 30.17in /  1021.6hPa Calm     79% 0.00in /  0mm
03:40 -1.6 °F /  -18.7 °C -6.5 °F /  -21.4 °C 30.17in /  1021.6hPa Calm     79% 0.00in /  0mm
03:44 -1.6 °F /  -18.7 °C -6.5 °F /  -21.4 °C 30.17in /  1021.6hPa Calm     79% 0.00in /  0mm
03:49 -1.2 °F /  -18.4 °C -6.1 °F /  -21.2 °C 30.17in /  1021.6hPa Calm     79% 0.00in /  0mm
03:54 -0.4 °F /  -18 °C -5.1 °F /  -20.6 °C 30.17in /  1021.6hPa Calm     80% 0.00in /  0mm
03:59 0.0 °F /  -17.8 °C -4.7 °F /  -20.4 °C 30.17in /  1021.6hPa Calm     80% 0.00in /  0mm
04:04 0.1 °F /  -17.7 °C -4.6 °F /  -20.3 °C 30.17in /  1021.6hPa Calm     80% 0.00in /  0mm
04:10 0.1 °F /  -17.7 °C -4.6 °F /  -20.3 °C 30.17in /  1021.6hPa Calm     80% 0.00in /  0mm
04:14 0.3 °F /  -17.6 °C -4.4 °F /  -20.2 °C 30.17in /  1021.6hPa Calm     80% 0.00in /  0mm
04:20 0.7 °F /  -17.4 °C -4.0 °F /  -20 °C 30.17in /  1021.6hPa Calm     80% 0.00in /  0mm
04:30 0.6 °F /  -17.4 °C -4.1 °F /  -20.1 °C 30.18in /  1021.9hPa Calm     80% 0.00in /  0mm
04:35 0.6 °F /  -17.4 °C -4.4 °F /  -20.2 °C 30.17in /  1021.6hPa Calm     79% 0.00in /  0mm
04:40 0.7 °F /  -17.4 °C -4.3 °F /  -20.2 °C 30.18in /  1021.9hPa Calm     79% 0.00in /  0mm
04:45 1.0 °F /  -17.2 °C -4.0 °F /  -20 °C 30.18in /  1021.9hPa Calm     79% 0.00in /  0mm
04:49 0.9 °F /  -17.3 °C -4.1 °F /  -20.1 °C 30.18in /  1021.9hPa Calm     79% 0.00in /  0mm
04:54 0.7 °F /  -17.4 °C -4.3 °F /  -20.2 °C 30.18in /  1021.9hPa Calm     79% 0.00in /  0mm
04:59 0.8 °F /  -17.3 °C -4.2 °F /  -20.1 °C 30.18in /  1021.9hPa Calm     79% 0.00in /  0mm
05:04 0.8 °F /  -17.3 °C -4.2 °F /  -20.1 °C 30.18in /  1021.9hPa Calm     79% 0.00in /  0mm
05:09 0.4 °F /  -17.6 °C -4.8 °F /  -20.4 °C 30.18in /  1021.9hPa Calm     78% 0.00in /  0mm
05:14 -0.2 °F /  -17.9 °C -5.7 °F /  -20.9 °C 30.18in /  1021.9hPa Calm     77% 0.00in /  0mm
05:19 -0.3 °F /  -17.9 °C -5.5 °F /  -20.8 °C 30.18in /  1021.9hPa Calm   2.0mph /  3.2km/h 78% 0.00in /  0mm
05:24 -0.5 °F /  -18.1 °C -5.7 °F /  -20.9 °C 30.19in /  1022.2hPa Calm   2.0mph /  3.2km/h 78% 0.00in /  0mm
05:29 -1.1 °F /  -18.4 °C -6.6 °F /  -21.4 °C 30.19in /  1022.2hPa Calm   1.0mph /  1.6km/h 77% 0.00in /  0mm
05:35 -1.3 °F /  -18.5 °C -6.5 °F /  -21.4 °C 30.19in /  1022.2hPa Calm   2.0mph /  3.2km/h 78% 0.00in /  0mm
05:39 -1.6 °F /  -18.7 °C -6.8 °F /  -21.6 °C 30.19in /  1022.2hPa Calm   2.0mph /  3.2km/h 78% 0.00in /  0mm
05:45 -1.2 °F /  -18.4 °C -6.1 °F /  -21.2 °C 30.19in /  1022.2hPa Calm   2.0mph /  3.2km/h 79% 0.00in /  0mm
05:49 -1.2 °F /  -18.4 °C -6.1 °F /  -21.2 °C 30.19in /  1022.2hPa Calm   2.0mph /  3.2km/h 79% 0.00in /  0mm
05:54 -1.3 °F /  -18.5 °C -6.5 °F /  -21.4 °C 30.19in /  1022.2hPa Calm   1.0mph /  1.6km/h 78% 0.00in /  0mm
05:59 -1.0 °F /  -18.3 °C -5.9 °F /  -21.1 °C 30.19in /  1022.2hPa Calm   2.0mph /  3.2km/h 79% 0.00in /  0mm
06:04 -0.1 °F /  -17.8 °C -4.8 °F /  -20.4 °C 30.19in /  1022.2hPa SW 1.0mph /  1.6km/h 4.0mph /  6.4km/h 80% 0.00in /  0mm
06:09 0.7 °F /  -17.4 °C -4.0 °F /  -20 °C 30.20in /  1022.6hPa Calm   4.0mph /  6.4km/h 80% 0.00in /  0mm
06:14 1.5 °F /  -16.9 °C -3.5 °F /  -19.7 °C 30.20in /  1022.6hPa SSW 1.0mph /  1.6km/h 4.0mph /  6.4km/h 79% 0.00in /  0mm
06:19 1.6 °F /  -16.9 °C -3.7 °F /  -19.8 °C 30.20in /  1022.6hPa Calm   4.0mph /  6.4km/h 78% 0.00in /  0mm
06:25 1.4 °F /  -17 °C -3.9 °F /  -19.9 °C 30.20in /  1022.6hPa Calm   3.0mph /  4.8km/h 78% 0.00in /  0mm
06:34 0.4 °F /  -17.6 °C -5.1 °F /  -20.6 °C 30.20in /  1022.6hPa Calm     77% 0.00in /  0mm
06:39 0.1 °F /  -17.7 °C -5.1 °F /  -20.6 °C 30.20in /  1022.6hPa Calm   2.0mph /  3.2km/h 78% 0.00in /  0mm
06:44 0.2 °F /  -17.7 °C -5.0 °F /  -20.6 °C 30.20in /  1022.6hPa SSW 1.0mph /  1.6km/h 3.0mph /  4.8km/h 78% 0.00in /  0mm
06:50 0.8 °F /  -17.3 °C -4.4 °F /  -20.2 °C 30.20in /  1022.6hPa SSW 2.0mph /  3.2km/h 4.0mph /  6.4km/h 78% 0.00in /  0mm
06:54 1.3 °F /  -17.1 °C -4.0 °F /  -20 °C 30.20in /  1022.6hPa SSW 1.0mph /  1.6km/h 4.0mph /  6.4km/h 78% 0.00in /  0mm
06:59 1.5 °F /  -16.9 °C -4.0 °F /  -20 °C 30.20in /  1022.6hPa SSW 1.0mph /  1.6km/h 4.0mph /  6.4km/h 77% 0.00in /  0mm
07:04 1.8 °F /  -16.8 °C -3.7 °F /  -19.8 °C 30.21in /  1022.9hPa SSW 1.0mph /  1.6km/h 5.0mph /  8km/h 77% 0.00in /  0mm
07:09 2.0 °F /  -16.7 °C -3.5 °F /  -19.7 °C 30.21in /  1022.9hPa SSW 1.0mph /  1.6km/h 5.0mph /  8km/h 77% 0.00in /  0mm
07:14 2.0 °F /  -16.7 °C -3.8 °F /  -19.9 °C 30.21in /  1022.9hPa SSW 2.0mph /  3.2km/h 5.0mph /  8km/h 76% 0.00in /  0mm
07:19 1.8 °F /  -16.8 °C -4.0 °F /  -20 °C 30.21in /  1022.9hPa SSW 1.0mph /  1.6km/h 3.0mph /  4.8km/h 76% 0.00in /  0mm
07:24 1.6 °F /  -16.9 °C -4.2 °F /  -20.1 °C 30.21in /  1022.9hPa SSW 1.0mph /  1.6km/h 3.0mph /  4.8km/h 76% 0.00in /  0mm
07:29 1.4 °F /  -17 °C -4.4 °F /  -20.2 °C 30.21in /  1022.9hPa SSW 1.0mph /  1.6km/h 3.0mph /  4.8km/h 76% 0.00in /  0mm
07:34 1.9 °F /  -16.7 °C -3.6 °F /  -19.8 °C 30.21in /  1022.9hPa SSW 1.0mph /  1.6km/h 5.0mph /  8km/h 77% 0.00in /  0mm
07:40 2.2 °F /  -16.6 °C -3.6 °F /  -19.8 °C 30.22in /  1023.2hPa SSW 1.0mph /  1.6km/h 5.0mph /  8km/h 76% 0.00in /  0mm
07:45 2.1 °F /  -16.6 °C -3.7 °F /  -19.8 °C 30.21in /  1022.9hPa SSW 1.0mph /  1.6km/h 4.0mph /  6.4km/h 76% 0.00in /  0mm
07:50 1.8 °F /  -16.8 °C -4.0 °F /  -20 °C 30.21in /  1022.9hPa Calm   4.0mph /  6.4km/h 76% 0.00in /  0mm
07:54 1.5 °F /  -16.9 °C -4.3 °F /  -20.2 °C 30.21in /  1022.9hPa Calm   3.0mph /  4.8km/h 76% 0.00in /  0mm
07:59 1.2 °F /  -17.1 °C -4.6 °F /  -20.3 °C 30.21in /  1022.9hPa Calm     76% 0.00in /  0mm
08:04 0.8 °F /  -17.3 °C -5.0 °F /  -20.6 °C 30.21in /  1022.9hPa Calm     76% 0.00in /  0mm
08:09 0.5 °F /  -17.5 °C -5.0 °F /  -20.6 °C 30.21in /  1022.9hPa Calm   3.0mph /  4.8km/h 77% 0.00in /  0mm
08:14 0.4 °F /  -17.6 °C -5.4 °F /  -20.8 °C 30.21in /  1022.9hPa Calm   3.0mph /  4.8km/h 76% 0.00in /  0mm
08:20 0.0 °F /  -17.8 °C -5.8 °F /  -21 °C 30.21in /  1022.9hPa Calm   1.0mph /  1.6km/h 76% 0.00in /  0mm
08:25 -0.1 °F /  -17.8 °C -5.6 °F /  -20.9 °C 30.21in /  1022.9hPa Calm     77% 0.00in /  0mm
08:30 -0.5 °F /  -18.1 °C -6.0 °F /  -21.1 °C 30.20in /  1022.6hPa Calm     77% 0.00in /  0mm
08:39 -0.8 °F /  -18.2 °C -6.3 °F /  -21.3 °C 30.20in /  1022.6hPa Calm     77% 0.00in /  0mm
08:45 -0.8 °F /  -18.2 °C -6.0 °F /  -21.1 °C 30.20in /  1022.6hPa Calm     78% 0.00in /  0mm
08:54 -0.1 °F /  -17.8 °C -5.1 °F /  -20.6 °C 30.20in /  1022.6hPa Calm   2.0mph /  3.2km/h 79% 0.00in /  0mm
08:59 1.0 °F /  -17.2 °C -3.7 °F /  -19.8 °C 30.20in /  1022.6hPa Calm   3.0mph /  4.8km/h 80% 0.00in /  0mm
09:04 2.2 °F /  -16.6 °C -2.6 °F /  -19.2 °C 30.20in /  1022.6hPa East 2.0mph /  3.2km/h 4.0mph /  6.4km/h 80% 0.00in /  0mm
09:09 3.5 °F /  -15.8 °C -1.5 °F /  -18.6 °C 30.20in /  1022.6hPa Calm   4.0mph /  6.4km/h 79% 0.00in /  0mm
09:14 4.2 °F /  -15.4 °C -1.4 °F /  -18.6 °C 30.20in /  1022.6hPa Calm   3.0mph /  4.8km/h 77% 0.00in /  0mm
09:19 4.7 °F /  -15.2 °C -1.2 °F /  -18.4 °C 30.20in /  1022.6hPa East 1.0mph /  1.6km/h 3.0mph /  4.8km/h 76% 0.00in /  0mm
09:24 5.4 °F /  -14.8 °C -0.5 °F /  -18.1 °C 30.19in /  1022.2hPa East 2.0mph /  3.2km/h 3.0mph /  4.8km/h 76% 0.00in /  0mm
09:30 6.2 °F /  -14.3 °C -0.3 °F /  -17.9 °C 30.19in /  1022.2hPa East 2.0mph /  3.2km/h 5.0mph /  8km/h 74% 0.00in /  0mm
09:39 7.4 °F /  -13.7 °C 0.6 °F /  -17.4 °C 30.19in /  1022.2hPa Calm   3.0mph /  4.8km/h 73% 0.00in /  0mm
09:45 8.3 °F /  -13.2 °C 1.4 °F /  -17 °C 30.19in /  1022.2hPa Calm   3.0mph /  4.8km/h 73% 0.00in /  0mm
09:49 9.3 °F /  -12.6 °C 2.4 °F /  -16.4 °C 30.19in /  1022.2hPa Calm   2.0mph /  3.2km/h 73% 0.00in /  0mm
09:54 10.1 °F /  -12.2 °C 2.6 °F /  -16.3 °C 30.19in /  1022.2hPa Calm   2.0mph /  3.2km/h 71% 0.00in /  0mm
09:59 10.8 °F /  -11.8 °C 2.6 °F /  -16.3 °C 30.19in /  1022.2hPa Calm   2.0mph /  3.2km/h 69% 0.00in /  0mm
10:04 11.3 °F /  -11.5 °C 2.1 °F /  -16.6 °C 30.19in /  1022.2hPa SSW 5.0mph /  8km/h 8.0mph /  12.9km/h 66% 0.00in /  0mm
10:09 11.8 °F /  -11.2 °C 2.3 °F /  -16.5 °C 30.18in /  1021.9hPa South 3.0mph /  4.8km/h 8.0mph /  12.9km/h 65% 0.00in /  0mm
10:14 12.3 °F /  -10.9 °C 1.8 °F /  -16.8 °C 30.18in /  1021.9hPa SSW 4.0mph /  6.4km/h 8.0mph /  12.9km/h 62% 0.00in /  0mm
10:19 12.7 °F /  -10.7 °C 1.8 °F /  -16.8 °C 30.17in /  1021.6hPa SSW 4.0mph /  6.4km/h 8.0mph /  12.9km/h 61% 0.00in /  0mm
10:24 13.4 °F /  -10.3 °C 2.5 °F /  -16.4 °C 30.17in /  1021.6hPa SSW 2.0mph /  3.2km/h 7.0mph /  11.3km/h 61% 0.00in /  0mm
10:29 14.2 °F /  -9.9 °C 2.5 °F /  -16.4 °C 30.17in /  1021.6hPa SSW 3.0mph /  4.8km/h 7.0mph /  11.3km/h 59% 0.00in /  0mm
10:34 14.8 °F /  -9.6 °C 2.7 °F /  -16.3 °C 30.16in /  1021.2hPa South 2.0mph /  3.2km/h 8.0mph /  12.9km/h 58% 0.00in /  0mm
10:39 15.3 °F /  -9.3 °C 3.2 °F /  -16 °C 30.15in /  1020.9hPa SSW 2.0mph /  3.2km/h 8.0mph /  12.9km/h 58% 0.00in /  0mm
10:44 15.6 °F /  -9.1 °C 3.1 °F /  -16.1 °C 30.15in /  1020.9hPa South 1.0mph /  1.6km/h 9.0mph /  14.5km/h 57% 0.00in /  0mm
10:50 16.4 °F /  -8.7 °C 3.4 °F /  -15.9 °C 30.15in /  1020.9hPa South 4.0mph /  6.4km/h 9.0mph /  14.5km/h 56% 0.00in /  0mm
10:54 16.6 °F /  -8.6 °C 2.8 °F /  -16.2 °C 30.14in /  1020.5hPa SSW 4.0mph /  6.4km/h 7.0mph /  11.3km/h 54% 0.00in /  0mm
10:59 17.0 °F /  -8.3 °C 3.2 °F /  -16 °C 30.13in /  1020.2hPa SSW 3.0mph /  4.8km/h 7.0mph /  11.3km/h 54% 0.00in /  0mm
11:04 17.7 °F /  -7.9 °C 3.9 °F /  -15.6 °C 30.13in /  1020.2hPa SSW 1.0mph /  1.6km/h 7.0mph /  11.3km/h 54% 0.00in /  0mm
11:09 17.7 °F /  -7.9 °C 3.5 °F /  -15.8 °C 30.12in /  1019.9hPa South 4.0mph /  6.4km/h 6.0mph /  9.7km/h 53% 0.00in /  0mm
11:14 18.1 °F /  -7.7 °C 3.8 °F /  -15.7 °C 30.12in /  1019.9hPa SSW 2.0mph /  3.2km/h 7.0mph /  11.3km/h 53% 0.00in /  0mm
11:19 18.6 °F /  -7.4 °C 4.7 °F /  -15.2 °C 30.11in /  1019.5hPa SSE 3.0mph /  4.8km/h 8.0mph /  12.9km/h 54% 0.00in /  0mm
11:24 18.9 °F /  -7.3 °C 4.6 °F /  -15.2 °C 30.11in /  1019.5hPa ENE 1.0mph /  1.6km/h 8.0mph /  12.9km/h 53% 0.00in /  0mm
11:29 18.8 °F /  -7.3 °C 5.7 °F /  -14.6 °C 30.10in /  1019.2hPa Calm   7.0mph /  11.3km/h 56% 0.00in /  0mm
11:34 18.9 °F /  -7.3 °C 5.0 °F /  -15 °C 30.09in /  1018.8hPa SSW 5.0mph /  8km/h 12.0mph /  19.3km/h 54% 0.00in /  0mm
11:40 19.7 °F /  -6.8 °C 4.5 °F /  -15.3 °C 30.09in /  1018.8hPa SSW 4.0mph /  6.4km/h 12.0mph /  19.3km/h 51% 0.00in /  0mm
11:49 20.7 °F /  -6.3 °C 3.6 °F /  -15.8 °C 30.08in /  1018.5hPa SSW 4.0mph /  6.4km/h 10.0mph /  16.1km/h 47% 0.00in /  0mm
11:54 21.0 °F /  -6.1 °C 4.4 °F /  -15.3 °C 30.08in /  1018.5hPa SW 3.0mph /  4.8km/h 10.0mph /  16.1km/h 48% 0.00in /  0mm
11:59 21.3 °F /  -5.9 °C 4.2 °F /  -15.4 °C 30.08in /  1018.5hPa South 3.0mph /  4.8km/h 7.0mph /  11.3km/h 47% 0.00in /  0mm
12:04 21.5 °F /  -5.8 °C 3.4 °F /  -15.9 °C 30.08in /  1018.5hPa SW 4.0mph /  6.4km/h 7.0mph /  11.3km/h 45% 0.00in /  0mm
12:09 21.5 °F /  -5.8 °C 3.9 °F /  -15.6 °C 30.07in /  1018.2hPa SW 6.0mph /  9.7km/h 12.0mph /  19.3km/h 46% 0.00in /  0mm
12:14 21.7 °F /  -5.7 °C 3.6 °F /  -15.8 °C 30.07in /  1018.2hPa SSW 2.0mph /  3.2km/h 12.0mph /  19.3km/h 45% 0.00in /  0mm
12:19 22.2 °F /  -5.4 °C 3.1 °F /  -16.1 °C 30.07in /  1018.2hPa SW 5.0mph /  8km/h 10.0mph /  16.1km/h 43% 0.00in /  0mm
12:24 22.2 °F /  -5.4 °C 2.6 °F /  -16.3 °C 30.06in /  1017.8hPa SW 3.0mph /  4.8km/h 9.0mph /  14.5km/h 42% 0.00in /  0mm
12:29 22.2 °F /  -5.4 °C 2.1 °F /  -16.6 °C 30.06in /  1017.8hPa SSW 6.0mph /  9.7km/h 10.0mph /  16.1km/h 41% 0.00in /  0mm
12:34 22.3 °F /  -5.4 °C 2.1 °F /  -16.6 °C 30.06in /  1017.8hPa SW 4.0mph /  6.4km/h 10.0mph /  16.1km/h 41% 0.00in /  0mm
12:40 22.4 °F /  -5.3 °C 1.7 °F /  -16.8 °C 30.05in /  1017.5hPa SSW 5.0mph /  8km/h 9.0mph /  14.5km/h 40% 0.00in /  0mm
12:49 22.8 °F /  -5.1 °C 2.1 °F /  -16.6 °C 30.04in /  1017.2hPa SSW 4.0mph /  6.4km/h 10.0mph /  16.1km/h 40% 0.00in /  0mm
12:54 23.1 °F /  -4.9 °C 2.9 °F /  -16.2 °C 30.03in /  1016.8hPa SSW 3.0mph /  4.8km/h 10.0mph /  16.1km/h 41% 0.00in /  0mm
12:59 23.4 °F /  -4.8 °C 2.6 °F /  -16.3 °C 30.03in /  1016.8hPa SSW 5.0mph /  8km/h 13.0mph /  20.9km/h 40% 0.00in /  0mm
13:04 23.4 °F /  -4.8 °C 2.1 °F /  -16.6 °C 30.03in /  1016.8hPa SSW 8.0mph /  12.9km/h 13.0mph /  20.9km/h 39% 0.00in /  0mm
13:09 23.4 °F /  -4.8 °C 2.6 °F /  -16.3 °C 30.02in /  1016.5hPa SSW 6.0mph /  9.7km/h 16.0mph /  25.7km/h 40% 0.00in /  0mm
13:14 22.9 °F /  -5.1 °C 2.2 °F /  -16.6 °C 30.01in /  1016.1hPa SW 7.0mph /  11.3km/h 16.0mph /  25.7km/h 40% 0.00in /  0mm
13:19 23.6 °F /  -4.7 °C 2.2 °F /  -16.6 °C 30.00in /  1015.8hPa SSW 7.0mph /  11.3km/h 14.0mph /  22.5km/h 39% 0.00in /  0mm
13:24 24.2 °F /  -4.3 °C 2.8 °F /  -16.2 °C 30.00in /  1015.8hPa South 6.0mph /  9.7km/h 13.0mph /  20.9km/h 39% 0.00in /  0mm
13:29 24.6 °F /  -4.1 °C 2.6 °F /  -16.3 °C 30.00in /  1015.8hPa SSW 5.0mph /  8km/h 11.0mph /  17.7km/h 38% 0.00in /  0mm
13:34 24.4 °F /  -4.2 °C 2.4 °F /  -16.4 °C 30.00in /  1015.8hPa SW 7.0mph /  11.3km/h 11.0mph /  17.7km/h 38% 0.00in /  0mm
13:39 24.6 °F /  -4.1 °C 2.6 °F /  -16.3 °C 29.99in /  1015.5hPa South 7.0mph /  11.3km/h 14.0mph /  22.5km/h 38% 0.00in /  0mm
13:44 24.7 °F /  -4.1 °C 3.2 °F /  -16 °C 29.99in /  1015.5hPa SSW 4.0mph /  6.4km/h 14.0mph /  22.5km/h 39% 0.00in /  0mm
13:49 25.2 °F /  -3.8 °C 3.1 °F /  -16.1 °C 29.99in /  1015.5hPa South 5.0mph /  8km/h 13.0mph /  20.9km/h 38% 0.00in /  0mm
13:54 25.4 °F /  -3.7 °C 3.9 °F /  -15.6 °C 29.98in /  1015.1hPa South 3.0mph /  4.8km/h 11.0mph /  17.7km/h 39% 0.00in /  0mm
13:59 25.8 °F /  -3.4 °C 2.5 °F /  -16.4 °C 29.98in /  1015.1hPa SSW 7.0mph /  11.3km/h 13.0mph /  20.9km/h 36% 0.00in /  0mm
14:04 25.7 °F /  -3.5 °C 3.6 °F /  -15.8 °C 29.98in /  1015.1hPa SSW 6.0mph /  9.7km/h 13.0mph /  20.9km/h 38% 0.00in /  0mm
14:09 25.9 °F /  -3.4 °C 3.2 °F /  -16 °C 29.97in /  1014.8hPa SSW 4.0mph /  6.4km/h 9.0mph /  14.5km/h 37% 0.00in /  0mm
14:14 26.3 °F /  -3.2 °C 3.5 °F /  -15.8 °C 29.97in /  1014.8hPa SSW 5.0mph /  8km/h 9.0mph /  14.5km/h 37% 0.00in /  0mm
14:19 26.1 °F /  -3.3 °C 3.4 °F /  -15.9 °C 29.97in /  1014.8hPa SSW 3.0mph /  4.8km/h 9.0mph /  14.5km/h 37% 0.00in /  0mm
14:24 26.3 °F /  -3.2 °C 3.5 °F /  -15.8 °C 29.97in /  1014.8hPa SE 2.0mph /  3.2km/h 9.0mph /  14.5km/h 37% 0.00in /  0mm
14:29 26.2 °F /  -3.2 °C 4.0 °F /  -15.6 °C 29.97in /  1014.8hPa SE 3.0mph /  4.8km/h 13.0mph /  20.9km/h 38% 0.00in /  0mm
14:34 26.1 °F /  -3.3 °C 3.4 °F /  -15.9 °C 29.97in /  1014.8hPa South 5.0mph /  8km/h 13.0mph /  20.9km/h 37% 0.00in /  0mm
14:40 25.8 °F /  -3.4 °C 3.7 °F /  -15.7 °C 29.97in /  1014.8hPa South 7.0mph /  11.3km/h 11.0mph /  17.7km/h 38% 0.00in /  0mm
14:49 25.7 °F /  -3.5 °C 3.0 °F /  -16.1 °C 29.97in /  1014.8hPa South 4.0mph /  6.4km/h 12.0mph /  19.3km/h 37% 0.00in /  0mm
14:54 25.6 °F /  -3.6 °C 2.9 °F /  -16.2 °C 29.96in /  1014.4hPa South 4.0mph /  6.4km/h 11.0mph /  17.7km/h 37% 0.00in /  0mm
14:59 24.9 °F /  -3.9 °C 2.9 °F /  -16.2 °C 29.96in /  1014.4hPa South 5.0mph /  8km/h 13.0mph /  20.9km/h 38% 0.00in /  0mm
15:04 24.2 °F /  -4.3 °C 2.8 °F /  -16.2 °C 29.96in /  1014.4hPa South 6.0mph /  9.7km/h 15.0mph /  24.1km/h 39% 0.00in /  0mm
15:09 24.0 °F /  -4.4 °C 2.6 °F /  -16.3 °C 29.95in /  1014.1hPa South 5.0mph /  8km/h 15.0mph /  24.1km/h 39% 0.00in /  0mm
15:14 23.9 °F /  -4.5 °C 3.1 °F /  -16.1 °C 29.95in /  1014.1hPa South 6.0mph /  9.7km/h 15.0mph /  24.1km/h 40% 0.00in /  0mm
15:19 23.9 °F /  -4.5 °C 3.1 °F /  -16.1 °C 29.95in /  1014.1hPa South 4.0mph /  6.4km/h 14.0mph /  22.5km/h 40% 0.00in /  0mm
15:24 23.6 °F /  -4.7 °C 3.3 °F /  -15.9 °C 29.94in /  1013.8hPa South 4.0mph /  6.4km/h 14.0mph /  22.5km/h 41% 0.00in /  0mm
15:29 23.5 °F /  -4.7 °C 3.2 °F /  -16 °C 29.94in /  1013.8hPa SSW 2.0mph /  3.2km/h 11.0mph /  17.7km/h 41% 0.00in /  0mm
15:34 23.3 °F /  -4.8 °C 3.6 °F /  -15.8 °C 29.94in /  1013.8hPa South 5.0mph /  8km/h 12.0mph /  19.3km/h 42% 0.00in /  0mm
15:39 23.0 °F /  -5 °C 3.3 °F /  -15.9 °C 29.93in /  1013.4hPa South 4.0mph /  6.4km/h 13.0mph /  20.9km/h 42% 0.00in /  0mm
15:44 22.8 °F /  -5.1 °C 3.6 °F /  -15.8 °C 29.93in /  1013.4hPa South 5.0mph /  8km/h 13.0mph /  20.9km/h 43% 0.00in /  0mm
15:49 22.6 °F /  -5.2 °C 3.9 °F /  -15.6 °C 29.93in /  1013.4hPa South 5.0mph /  8km/h 12.0mph /  19.3km/h 44% 0.00in /  0mm
15:54 22.4 °F /  -5.3 °C 3.8 °F /  -15.7 °C 29.93in /  1013.4hPa SSE 5.0mph /  8km/h 12.0mph /  19.3km/h 44% 0.00in /  0mm
15:59 22.2 °F /  -5.4 °C 3.6 °F /  -15.8 °C 29.93in /  1013.4hPa SSE 5.0mph /  8km/h 11.0mph /  17.7km/h 44% 0.00in /  0mm
16:04 22.1 °F /  -5.5 °C 4.0 °F /  -15.6 °C 29.93in /  1013.4hPa SSW 2.0mph /  3.2km/h 11.0mph /  17.7km/h 45% 0.00in /  0mm
16:09 22.0 °F /  -5.6 °C 3.9 °F /  -15.6 °C 29.93in /  1013.4hPa South 3.0mph /  4.8km/h 11.0mph /  17.7km/h 45% 0.00in /  0mm
16:14 22.0 °F /  -5.6 °C 3.9 °F /  -15.6 °C 29.93in /  1013.4hPa SSW 5.0mph /  8km/h 9.0mph /  14.5km/h 45% 0.00in /  0mm
16:20 21.9 °F /  -5.6 °C 4.3 °F /  -15.4 °C 29.93in /  1013.4hPa SSW 4.0mph /  6.4km/h 9.0mph /  14.5km/h 46% 0.00in /  0mm
16:29 21.8 °F /  -5.7 °C 4.6 °F /  -15.2 °C 29.93in /  1013.4hPa SSE 4.0mph /  6.4km/h 13.0mph /  20.9km/h 47% 0.00in /  0mm
16:34 21.7 °F /  -5.7 °C 4.6 °F /  -15.2 °C 29.93in /  1013.4hPa South 5.0mph /  8km/h 13.0mph /  20.9km/h 47% 0.00in /  0mm
16:39 21.7 °F /  -5.7 °C 4.6 °F /  -15.2 °C 29.93in /  1013.4hPa South 4.0mph /  6.4km/h 10.0mph /  16.1km/h 47% 0.00in /  0mm
16:45 21.8 °F /  -5.7 °C 4.6 °F /  -15.2 °C 29.92in /  1013.1hPa South 5.0mph /  8km/h 13.0mph /  20.9km/h 47% 0.00in /  0mm
16:54 21.8 °F /  -5.7 °C 4.6 °F /  -15.2 °C 29.92in /  1013.1hPa South 6.0mph /  9.7km/h 14.0mph /  22.5km/h 47% 0.00in /  0mm
16:59 21.8 °F /  -5.7 °C 5.1 °F /  -14.9 °C 29.92in /  1013.1hPa SSW 3.0mph /  4.8km/h 14.0mph /  22.5km/h 48% 0.00in /  0mm
17:04 21.8 °F /  -5.7 °C 5.1 °F /  -14.9 °C 29.91in /  1012.8hPa South 5.0mph /  8km/h 12.0mph /  19.3km/h 48% 0.00in /  0mm
17:09 21.9 °F /  -5.6 °C 5.2 °F /  -14.9 °C 29.91in /  1012.8hPa South 6.0mph /  9.7km/h 12.0mph /  19.3km/h 48% 0.00in /  0mm
17:14 21.9 °F /  -5.6 °C 5.7 °F /  -14.6 °C 29.91in /  1012.8hPa South 5.0mph /  8km/h 12.0mph /  19.3km/h 49% 0.00in /  0mm
17:19 21.9 °F /  -5.6 °C 5.7 °F /  -14.6 °C 29.91in /  1012.8hPa South 4.0mph /  6.4km/h 12.0mph /  19.3km/h 49% 0.00in /  0mm
17:24 22.0 °F /  -5.6 °C 5.7 °F /  -14.6 °C 29.91in /  1012.8hPa South 3.0mph /  4.8km/h 15.0mph /  24.1km/h 49% 0.00in /  0mm
17:29 22.0 °F /  -5.6 °C 5.7 °F /  -14.6 °C 29.90in /  1012.4hPa South 7.0mph /  11.3km/h 15.0mph /  24.1km/h 49% 0.00in /  0mm
17:34 22.0 °F /  -5.6 °C 6.2 °F /  -14.3 °C 29.90in /  1012.4hPa South 7.0mph /  11.3km/h 15.0mph /  24.1km/h 50% 0.00in /  0mm
17:39 22.1 °F /  -5.5 °C 6.3 °F /  -14.3 °C 29.90in /  1012.4hPa South 6.0mph /  9.7km/h 18.0mph /  29km/h 50% 0.00in /  0mm
17:44 22.2 °F /  -5.4 °C 6.4 °F /  -14.2 °C 29.91in /  1012.8hPa South 5.0mph /  8km/h 18.0mph /  29km/h 50% 0.00in /  0mm
17:49 22.2 °F /  -5.4 °C 6.8 °F /  -14 °C 29.91in /  1012.8hPa SSW 7.0mph /  11.3km/h 18.0mph /  29km/h 51% 0.00in /  0mm
17:54 22.3 °F /  -5.4 °C 7.3 °F /  -13.7 °C 29.90in /  1012.4hPa South 7.0mph /  11.3km/h 18.0mph /  29km/h 52% 0.00in /  0mm
17:59 22.3 °F /  -5.4 °C 7.3 °F /  -13.7 °C 29.90in /  1012.4hPa SSW 6.0mph /  9.7km/h 15.0mph /  24.1km/h 52% 0.00in /  0mm
18:04 22.3 °F /  -5.4 °C 7.3 °F /  -13.7 °C 29.90in /  1012.4hPa SSW 9.0mph /  14.5km/h 15.0mph /  24.1km/h 52% 0.00in /  0mm
18:09 22.3 °F /  -5.4 °C 7.8 °F /  -13.4 °C 29.90in /  1012.4hPa South 6.0mph /  9.7km/h 15.0mph /  24.1km/h 53% 0.00in /  0mm
18:14 22.3 °F /  -5.4 °C 7.8 °F /  -13.4 °C 29.90in /  1012.4hPa SSW 6.0mph /  9.7km/h 18.0mph /  29km/h 53% 0.00in /  0mm
18:19 22.3 °F /  -5.4 °C 7.8 °F /  -13.4 °C 29.90in /  1012.4hPa South 5.0mph /  8km/h 18.0mph /  29km/h 53% 0.00in /  0mm
18:24 22.4 °F /  -5.3 °C 7.8 °F /  -13.4 °C 29.90in /  1012.4hPa SSW 5.0mph /  8km/h 14.0mph /  22.5km/h 53% 0.00in /  0mm
18:29 22.4 °F /  -5.3 °C 7.8 °F /  -13.4 °C 29.91in /  1012.8hPa SSW 4.0mph /  6.4km/h 14.0mph /  22.5km/h 53% 0.00in /  0mm
18:35 22.4 °F /  -5.3 °C 7.8 °F /  -13.4 °C 29.91in /  1012.8hPa SSW 4.0mph /  6.4km/h 9.0mph /  14.5km/h 53% 0.00in /  0mm
18:44 22.6 °F /  -5.2 °C 8.0 °F /  -13.3 °C 29.90in /  1012.4hPa SSW 5.0mph /  8km/h 11.0mph /  17.7km/h 53% 0.00in /  0mm
18:49 22.6 °F /  -5.2 °C 8.4 °F /  -13.1 °C 29.90in /  1012.4hPa South 5.0mph /  8km/h 11.0mph /  17.7km/h 54% 0.00in /  0mm
18:54 22.6 °F /  -5.2 °C 8.4 °F /  -13.1 °C 29.90in /  1012.4hPa South 8.0mph /  12.9km/h 12.0mph /  19.3km/h 54% 0.00in /  0mm
18:59 22.8 °F /  -5.1 °C 8.6 °F /  -13 °C 29.89in /  1012.1hPa SSW 6.0mph /  9.7km/h 12.0mph /  19.3km/h 54% 0.00in /  0mm
19:04 22.8 °F /  -5.1 °C 9.0 °F /  -12.8 °C 29.89in /  1012.1hPa South 4.0mph /  6.4km/h 12.0mph /  19.3km/h 55% 0.00in /  0mm
19:09 22.9 °F /  -5.1 °C 9.5 °F /  -12.5 °C 29.90in /  1012.4hPa South 6.0mph /  9.7km/h 16.0mph /  25.7km/h 56% 0.00in /  0mm
19:14 22.9 °F /  -5.1 °C 9.5 °F /  -12.5 °C 29.90in /  1012.4hPa SSW 4.0mph /  6.4km/h 20.0mph /  32.2km/h 56% 0.00in /  0mm
19:19 22.8 °F /  -5.1 °C 10.2 °F /  -12.1 °C 29.90in /  1012.4hPa South 7.0mph /  11.3km/h 20.0mph /  32.2km/h 58% 0.00in /  0mm
19:24 22.6 °F /  -5.2 °C 10.4 °F /  -12 °C 29.90in /  1012.4hPa South 7.0mph /  11.3km/h 15.0mph /  24.1km/h 59% 0.00in /  0mm
19:30 22.3 °F /  -5.4 °C 10.9 °F /  -11.7 °C 29.91in /  1012.8hPa SSW 4.0mph /  6.4km/h 15.0mph /  24.1km/h 61% 0.00in /  0mm
19:40 22.0 °F /  -5.6 °C 11.7 °F /  -11.3 °C 29.91in /  1012.8hPa South 7.0mph /  11.3km/h 14.0mph /  22.5km/h 64% 0.00in /  0mm
19:49 21.6 °F /  -5.8 °C 12.7 °F /  -10.7 °C 29.91in /  1012.8hPa South 7.0mph /  11.3km/h 17.0mph /  27.4km/h 68% 0.00in /  0mm
19:54 21.4 °F /  -5.9 °C 13.1 °F /  -10.5 °C 29.90in /  1012.4hPa South 9.0mph /  14.5km/h 17.0mph /  27.4km/h 70% 0.00in /  0mm
19:59 21.1 °F /  -6.1 °C 13.5 °F /  -10.3 °C 29.90in /  1012.4hPa South 4.0mph /  6.4km/h 17.0mph /  27.4km/h 72% 0.00in /  0mm
20:04 20.9 °F /  -6.2 °C 13.9 °F /  -10.1 °C 29.90in /  1012.4hPa South 7.0mph /  11.3km/h 14.0mph /  22.5km/h 74% 0.00in /  0mm
20:09 20.8 °F /  -6.2 °C 14.1 °F /  -9.9 °C 29.90in /  1012.4hPa South 5.0mph /  8km/h 13.0mph /  20.9km/h 75% 0.00in /  0mm
20:15 20.7 °F /  -6.3 °C 14.3 °F /  -9.8 °C 29.90in /  1012.4hPa South 6.0mph /  9.7km/h 11.0mph /  17.7km/h 76% 0.00in /  0mm
20:20 20.7 °F /  -6.3 °C 14.6 °F /  -9.7 °C 29.90in /  1012.4hPa South 5.0mph /  8km/h 10.0mph /  16.1km/h 77% 0.00in /  0mm
20:24 20.7 °F /  -6.3 °C 14.6 °F /  -9.7 °C 29.90in /  1012.4hPa SSW 3.0mph /  4.8km/h 10.0mph /  16.1km/h 77% 0.00in /  0mm
20:30 20.7 °F /  -6.3 °C 14.6 °F /  -9.7 °C 29.90in /  1012.4hPa South 5.0mph /  8km/h 9.0mph /  14.5km/h 77% 0.00in /  0mm
20:35 20.7 °F /  -6.3 °C 14.6 °F /  -9.7 °C 29.89in /  1012.1hPa South 4.0mph /  6.4km/h 9.0mph /  14.5km/h 77% 0.00in /  0mm
20:40 20.8 °F /  -6.2 °C 14.7 °F /  -9.6 °C 29.89in /  1012.1hPa South 6.0mph /  9.7km/h 12.0mph /  19.3km/h 77% 0.00in /  0mm
20:50 20.9 °F /  -6.2 °C 14.8 °F /  -9.6 °C 29.89in /  1012.1hPa South 4.0mph /  6.4km/h 10.0mph /  16.1km/h 77% 0.00in /  0mm
20:55 20.9 °F /  -6.2 °C 14.8 °F /  -9.6 °C 29.89in /  1012.1hPa SSW 5.0mph /  8km/h 10.0mph /  16.1km/h 77% 0.00in /  0mm
21:00 20.9 °F /  -6.2 °C 15.1 °F /  -9.4 °C 29.89in /  1012.1hPa South 5.0mph /  8km/h 11.0mph /  17.7km/h 78% 0.00in /  0mm
21:05 21.0 °F /  -6.1 °C 15.2 °F /  -9.3 °C 29.88in /  1011.7hPa SSE 3.0mph /  4.8km/h 11.0mph /  17.7km/h 78% 0.00in /  0mm
21:10 21.0 °F /  -6.1 °C 15.2 °F /  -9.3 °C 29.88in /  1011.7hPa SSW 5.0mph /  8km/h 10.0mph /  16.1km/h 78% 0.00in /  0mm
21:15 20.9 °F /  -6.2 °C 15.4 °F /  -9.2 °C 29.88in /  1011.7hPa South 5.0mph /  8km/h 9.0mph /  14.5km/h 79% 0.00in /  0mm
21:20 21.0 °F /  -6.1 °C 15.5 °F /  -9.2 °C 29.88in /  1011.7hPa SSW 3.0mph /  4.8km/h 9.0mph /  14.5km/h 79% 0.00in /  0mm
21:25 21.0 °F /  -6.1 °C 15.8 °F /  -9 °C 29.88in /  1011.7hPa South 4.0mph /  6.4km/h 9.0mph /  14.5km/h 80% 0.00in /  0mm
21:30 21.1 °F /  -6.1 °C 15.9 °F /  -8.9 °C 29.88in /  1011.7hPa SSW 3.0mph /  4.8km/h 14.0mph /  22.5km/h 80% 0.00in /  0mm
21:35 21.1 °F /  -6.1 °C 16.2 °F /  -8.8 °C 29.87in /  1011.4hPa South 7.0mph /  11.3km/h 14.0mph /  22.5km/h 81% 0.00in /  0mm
21:45 21.1 °F /  -6.1 °C 16.2 °F /  -8.8 °C 29.87in /  1011.4hPa SSW 4.0mph /  6.4km/h 11.0mph /  17.7km/h 81% 0.00in /  0mm
21:50 21.1 °F /  -6.1 °C 16.2 °F /  -8.8 °C 29.87in /  1011.4hPa South 4.0mph /  6.4km/h 11.0mph /  17.7km/h 81% 0.00in /  0mm
22:00 21.2 °F /  -6 °C 16.6 °F /  -8.6 °C 29.87in /  1011.4hPa South 3.0mph /  4.8km/h 10.0mph /  16.1km/h 82% 0.00in /  0mm
22:05 21.2 °F /  -6 °C 16.6 °F /  -8.6 °C 29.86in /  1011.1hPa SSW 6.0mph /  9.7km/h 10.0mph /  16.1km/h 82% 0.00in /  0mm
22:15 21.2 °F /  -6 °C 16.8 °F /  -8.4 °C 29.86in /  1011.1hPa South 4.0mph /  6.4km/h 8.0mph /  12.9km/h 83% 0.00in /  0mm
22:20 21.2 °F /  -6 °C 16.8 °F /  -8.4 °C 29.86in /  1011.1hPa South 4.0mph /  6.4km/h 8.0mph /  12.9km/h 83% 0.00in /  0mm
22:30 21.3 °F /  -5.9 °C 16.9 °F /  -8.4 °C 29.86in /  1011.1hPa SSW 3.0mph /  4.8km/h 8.0mph /  12.9km/h 83% 0.00in /  0mm
22:35 21.3 °F /  -5.9 °C 16.9 °F /  -8.4 °C 29.86in /  1011.1hPa SSW 4.0mph /  6.4km/h 7.0mph /  11.3km/h 83% 0.00in /  0mm
22:40 21.4 °F /  -5.9 °C 17.3 °F /  -8.2 °C 29.86in /  1011.1hPa South 4.0mph /  6.4km/h 11.0mph /  17.7km/h 84% 0.00in /  0mm
22:50 21.4 °F /  -5.9 °C 17.3 °F /  -8.2 °C 29.86in /  1011.1hPa SSW 5.0mph /  8km/h 10.0mph /  16.1km/h 84% 0.00in /  0mm
23:00 21.5 °F /  -5.8 °C 17.4 °F /  -8.1 °C 29.86in /  1011.1hPa South 3.0mph /  4.8km/h 9.0mph /  14.5km/h 84% 0.00in /  0mm
23:05 21.6 °F /  -5.8 °C 17.5 °F /  -8.1 °C 29.85in /  1010.7hPa SSW 4.0mph /  6.4km/h 10.0mph /  16.1km/h 84% 0.00in /  0mm
23:10 21.6 °F /  -5.8 °C 17.5 °F /  -8.1 °C 29.85in /  1010.7hPa South 1.0mph /  1.6km/h 10.0mph /  16.1km/h 84% 0.00in /  0mm
23:15 21.5 °F /  -5.8 °C 17.4 °F /  -8.1 °C 29.85in /  1010.7hPa Calm   8.0mph /  12.9km/h 84% 0.00in /  0mm
23:20 21.6 °F /  -5.8 °C 17.5 °F /  -8.1 °C 29.85in /  1010.7hPa SSW 1.0mph /  1.6km/h 7.0mph /  11.3km/h 84% 0.00in /  0mm
23:25 21.6 °F /  -5.8 °C 17.5 °F /  -8.1 °C 29.85in /  1010.7hPa South 3.0mph /  4.8km/h 7.0mph /  11.3km/h 84% 0.00in /  0mm
23:30 21.6 °F /  -5.8 °C 17.5 °F /  -8.1 °C 29.85in /  1010.7hPa SSW 2.0mph /  3.2km/h 7.0mph /  11.3km/h 84% 0.00in /  0mm
23:35 21.6 °F /  -5.8 °C 17.5 °F /  -8.1 °C 29.85in /  1010.7hPa SSW 2.0mph /  3.2km/h 7.0mph /  11.3km/h 84% 0.00in /  0mm
23:45 21.7 °F /  -5.7 °C 17.6 °F /  -8 °C 29.85in /  1010.7hPa South 2.0mph /  3.2km/h 7.0mph /  11.3km/h 84% 0.00in /  0mm
23:50 21.7 °F /  -5.7 °C 17.6 °F /  -8 °C 29.85in /  1010.7hPa SSW 5.0mph /  8km/h 9.0mph /  14.5km/h 84% 0.00in /  0mm
Westford Weather
Compliments of Weather Underground

 
 
Current Radar Loop:

Copyright © WestfordWeather.net 2007-2014. All rights reserved.